createdAt,value
2023-01-20T12:16:25.466Z,26.17
2023-01-20T12:43:15.543Z,34.17
2023-01-20T14:23:30.422Z,43.30
2023-01-20T14:24:46.453Z,49.25
2023-01-20T14:25:58.341Z,100.95
2023-01-20T14:27:19.008Z,94.85
2023-01-20T14:28:23.560Z,49.10
2023-01-20T14:29:28.529Z,58.38
2023-01-20T14:30:30.550Z,39.90
2023-01-20T14:31:37.638Z,29.77
2023-01-20T14:32:39.575Z,50.70
2023-01-20T14:33:45.130Z,84.30
2023-01-20T14:34:47.413Z,89.90
2023-01-20T21:39:43.286Z,89.13
2023-01-20T21:40:59.909Z,90.82
2023-01-20T21:42:01.820Z,79.45
2023-01-20T21:43:22.586Z,77.82
2023-01-20T21:44:32.411Z,67.55
2023-01-20T21:45:34.246Z,71.10
2023-01-20T21:46:39.810Z,74.20
2023-01-20T21:47:41.933Z,79.68
2023-01-20T21:49:02.151Z,71.53
2023-01-20T21:50:23.118Z,72.53
2023-01-20T21:51:43.378Z,76.72
2023-01-20T21:52:45.552Z,95.20
2023-01-20T21:53:47.471Z,73.25
2023-01-20T21:54:49.638Z,67.63
2023-01-20T21:55:51.449Z,71.07
2023-01-20T21:56:53.239Z,71.95
2023-01-20T21:57:56.389Z,73.53
2023-01-20T21:58:58.110Z,67.13
2023-01-20T22:00:01.195Z,64.63
2023-01-20T22:01:03.206Z,72.63
2023-01-20T22:02:06.080Z,72.00
2023-01-20T22:03:07.960Z,71.97
2023-01-20T22:04:09.845Z,57.53
2023-01-20T22:05:13.444Z,67.03
2023-01-20T22:06:16.945Z,62.15
2023-01-20T22:07:22.464Z,69.43
2023-01-20T22:08:24.612Z,55.97
2023-01-20T22:09:26.446Z,58.67
2023-01-20T22:10:31.237Z,61.25
2023-01-20T22:11:33.011Z,68.50
2023-01-20T22:12:35.995Z,53.67
2023-01-20T22:13:37.969Z,59.78
2023-01-20T22:14:40.060Z,55.67
2023-01-20T22:15:41.822Z,61.83
2023-01-20T22:16:45.089Z,57.28
2023-01-20T22:17:47.893Z,70.10
2023-01-20T22:18:50.591Z,64.70
2023-01-20T22:19:52.495Z,68.47
2023-01-20T22:20:54.374Z,64.82
2023-01-20T22:21:57.030Z,54.05
2023-01-20T22:22:58.808Z,60.30
2023-01-20T22:24:02.909Z,64.50
2023-01-20T22:25:05.053Z,64.75
2023-01-20T22:26:07.147Z,57.10
2023-01-20T22:27:08.973Z,78.28
2023-01-20T22:28:10.965Z,57.53
2023-01-20T22:29:12.974Z,61.15
2023-01-20T22:30:15.245Z,61.45
2023-01-20T22:31:23.980Z,60.22
2023-01-20T22:32:25.990Z,68.03
2023-01-20T22:33:27.779Z,58.38
2023-01-20T22:34:29.739Z,68.15
2023-01-20T22:35:31.453Z,65.32
2023-01-20T22:36:34.136Z,60.15
2023-01-20T22:37:36.041Z,52.85
2023-01-20T22:38:38.049Z,54.45
2023-01-20T22:39:39.767Z,55.90
2023-01-20T22:40:41.477Z,53.63
2023-01-20T22:41:43.412Z,57.28
2023-01-20T22:42:45.891Z,63.55
2023-01-20T22:43:48.393Z,57.17
2023-01-20T22:44:50.262Z,55.38
2023-01-20T22:45:58.964Z,61.13
2023-01-20T22:47:00.742Z,63.75
2023-01-20T22:48:02.758Z,64.72
2023-01-20T22:49:04.595Z,62.15
2023-01-20T22:50:09.429Z,58.97
2023-01-20T22:51:16.811Z,53.35
2023-01-20T22:52:19.085Z,57.17
2023-01-20T22:53:21.200Z,57.35
2023-01-20T22:54:23.279Z,52.28
2023-01-20T22:55:27.406Z,56.45
2023-01-20T22:56:32.005Z,56.92
2023-01-20T22:57:34.088Z,60.13
2023-01-20T22:58:37.549Z,63.40
2023-01-20T22:59:39.799Z,59.15
2023-01-20T23:00:42.854Z,56.05
2023-01-20T23:01:44.680Z,58.15
2023-01-20T23:02:46.470Z,49.00
2023-01-20T23:03:48.693Z,52.75
2023-01-20T23:04:52.420Z,51.10
2023-01-20T23:05:59.399Z,48.53
2023-01-20T23:07:01.226Z,51.03
2023-01-20T23:08:03.475Z,50.42
2023-01-20T23:09:11.090Z,49.80
2023-01-20T23:10:32.889Z,60.40
2023-01-20T23:11:36.554Z,59.28
2023-01-20T23:12:38.553Z,67.07
2023-01-20T23:13:41.231Z,51.58
2023-01-20T23:15:01.417Z,53.28
2023-01-20T23:16:04.754Z,49.08
2023-01-20T23:17:06.667Z,48.42
2023-01-20T23:18:09.758Z,63.50
2023-01-20T23:19:12.637Z,49.63
2023-01-20T23:20:15.209Z,54.10
2023-01-20T23:21:17.834Z,47.60
2023-01-20T23:22:20.032Z,43.35
2023-01-20T23:23:22.801Z,52.10
2023-01-20T23:24:24.727Z,44.55
2023-01-20T23:25:28.207Z,43.65
2023-01-20T23:26:31.569Z,50.35
2023-01-20T23:27:33.324Z,43.40
2023-01-20T23:28:35.269Z,44.00
2023-01-20T23:29:37.413Z,42.13
2023-01-20T23:30:40.198Z,42.67
2023-01-20T23:31:42.076Z,41.38
2023-01-20T23:32:45.082Z,31.80
2023-01-20T23:33:47.405Z,27.13
2023-01-20T23:34:49.160Z,26.98
2023-01-20T23:35:51.248Z,27.52
2023-01-20T23:36:53.116Z,31.50
2023-01-20T23:37:55.375Z,26.27
2023-01-20T23:38:57.765Z,26.75
2023-01-20T23:39:59.621Z,26.40
2023-01-20T23:41:02.357Z,29.98
2023-01-20T23:42:04.222Z,22.60
2023-01-20T23:43:05.975Z,25.90
2023-01-20T23:44:09.617Z,25.05
2023-01-20T23:45:12.066Z,28.70
2023-01-20T23:46:14.014Z,23.10
2023-01-20T23:47:15.865Z,20.63
2023-01-20T23:48:18.213Z,22.88
2023-01-20T23:49:22.508Z,21.15
2023-01-20T23:50:24.695Z,20.23
2023-01-20T23:51:26.618Z,16.77
2023-01-20T23:52:28.821Z,16.15
2023-01-20T23:53:32.214Z,17.80
2023-01-20T23:54:33.959Z,15.68
2023-01-20T23:55:38.039Z,13.00
2023-01-20T23:56:40.207Z,13.07
2023-01-20T23:57:42.173Z,12.85
2023-01-20T23:58:44.697Z,13.93
2023-01-20T23:59:46.891Z,14.05
